Aviation Digital Data Service (ADDS)

Output produced by METARs form (0323 UTC 21 September 2017)
found at http://www.aviationweather.gov/adds/metars/
 
KSAC 202321Z 2100/2124 21010G20KT P6SM OVC100 
     FM210600 25006KT P6SM BKN250 
     FM211200 32005KT P6SM BKN250
       
KSAF 202320Z 2100/2124 24011G18KT P6SM SKC 
     FM210100 14008KT P6SM SKC 
     FM211000 VRB05KT P6SM SKC 
     FM211800 22012G20KT P6SM SKC 
     FM212100 22016G26KT P6SM FEW080
       
KSAN 210314Z 2103/2206 18006KT P6SM SCT022 
     FM210500 18005KT P6SM OVC022 
     FM211000 18006KT P6SM VCSH OVC025 
     FM211900 26011KT P6SM SCT025 BKN035 
     FM220200 29006KT P6SM BKN025
       
KSAT 202341Z 2100/2206 14012KT P6SM SCT040 
     FM210700 15008KT P6SM BKN012 
     FM211600 17009KT P6SM SCT040 
     FM212300 14012KT P6SM SCT040
       
KSAV 202326Z 2100/2124 16005KT P6SM SCT050 
     FM210200 00000KT P6SM SCT050 
     FM211700 15008KT P6SM BKN050
       
KSBA 202346Z 2100/2124 24009KT P6SM SCT035 
     FM210400 VRB03KT P6SM SKC 
     FM211200 VRB03KT P6SM BKN012 BKN025 
     FM211600 16008KT P6SM FEW025 SCT040 
     FM211900 25015G25KT P6SM SCT040
       
KSBD 202320Z 2100/2124 25007KT 5SM HZ SCT050 
     FM210200 26005KT P6SM FEW035 
     FM210800 VRB05KT P6SM BKN035 
     FM211000 VRB04KT P6SM VCSH OVC025 
     FM211800 VRB05KT P6SM SCT025 BKN035 
     FM212100 25008KT P6SM BKN045
       
KSBN 202333Z 2100/2124 17008KT P6SM SKC 
     FM211000 18004KT 5SM BR FEW050 BKN200 
     FM211500 17008KT P6SM FEW050
       
KSBP 210131Z 2102/2124 31012KT 6SM BR BKN007 
     FM210900 31008KT P6SM OVC012 
     FM211600 33014G22KT P6SM SCT012 SCT025 
     FM212000 32021G29KT P6SM FEW012 SCT025
       
KSBY 202320Z 2100/2124 30003KT P6SM SKC 
     FM211500 01007KT P6SM SCT035 
     FM212000 03005KT P6SM SCT200
       
KSCK 202321Z 2100/2124 26011G20KT P6SM BKN050 
     FM210800 27012KT P6SM BKN250
       
KSDF 202320Z 2100/2206 VRB03KT P6SM SCT040 
     FM211000 00000KT 4SM BR FEW250 
     TEMPO 2110/2112 2SM BR 
     FM211400 VRB03KT P6SM FEW040 SCT200 
     FM211700 14005KT P6SM SCT040
       
KSDL 202321Z 2100/2124 24008KT P6SM SKC 
     FM210400 VRB03KT P6SM SKC 
     FM211800 24012KT P6SM SKC
       
KSDY 202320Z 2100/2124 23012KT P6SM SCT120 
     FM210200 22009KT P6SM SCT120 
     FM210500 VRB06KT P6SM BKN090
       
KSEA 210304Z 2103/2206 16004KT P6SM FEW020 BKN060 
     FM211000 18006KT P6SM BKN015 BKN040 
     FM212000 30008KT P6SM SCT040
       
KSEZ 202325Z 2100/2124 19016G24KT P6SM SKC 
     FM210300 19011KT P6SM SKC 
     FM211500 16010G20KT P6SM FEW170 
     FM211800 19017G30KT P6SM SCT150
       
KSFB 202330Z 2100/2124 VRB05KT P6SM FEW250 
     FM211500 06007KT P6SM SCT030 SCT250 
     FM211800 07011KT P6SM SCT050 SCT250
       
KSFF 202338Z 2100/2124 20006KT P6SM -SHRA FEW020 BKN040 OVC050 
     FM210200 21004KT P6SM BKN070 
     FM210800 VRB03KT P6SM BKN050 OVC100 
     FM211400 22005KT P6SM -RA BKN016 OVC060 
     FM211700 20006KT P6SM BKN025 OVC060 
     FM212100 29005KT P6SM VCSH SCT035 BKN050
       
KSFO 210239Z 2103/2206 26014G18KT P6SM FEW007 SCT013 BKN100 
     FM210600 26014KT P6SM FEW007 SCT015 
     FM212000 28018G25KT P6SM FEW015 
     FM220300 26015KT P6SM FEW015
       
KSGF 202320Z 2100/2124 17010KT P6SM SKC 
     FM211700 18012KT P6SM SCT250
       
KSGJ 202320Z 2100/2124 12010KT P6SM SCT250 
     FM210200 15005KT P6SM BKN250 
     FM211400 08011KT P6SM SCT030 BKN250
       
KSGU 202321Z 2100/2124 25013G22KT P6SM SKC 
     FM210200 17011KT P6SM SKC 
     FM211600 21020G30KT P6SM SKC
       
KSHR 202320Z 2100/2124 20011G19KT P6SM SKC 
     FM210100 VRB06KT P6SM SCT100 
     FM210600 VRB06KT P6SM VCSH BKN070
       
KSHV 202320Z 2100/2124 17005KT P6SM SCT050 SCT250 
     TEMPO 2109/2112 BKN007 
     FM211200 17005KT 6SM BR BKN015 
     FM211600 19008KT P6SM BKN025 
     FM211800 17008KT P6SM SCT040 SCT250
       
KSJC 202339Z 2100/2124 32010KT P6SM FEW008 SCT030 BKN045 
     FM210200 30010KT P6SM FEW008 BKN030 
     FM210600 VRB03KT P6SM FEW010 SCT030 
     FM211700 31009KT P6SM SCT015 
     FM212100 31012KT P6SM FEW015
       
KSJT 210106Z 2101/2124 22011KT P6SM SCT100 
     FM210200 17010KT P6SM SCT100 
     FM211500 18010G20KT P6SM SKC
       
TAF KSKA 210301Z 2103/2209 21006KT 9999 BKN015 BKN080 QNH2971INS 
     BECMG 2115/2116 20012KT 9999 BKN010 QNH2980INS 
     BECMG 2119/2120 22012KT 9000 -SHRA BKN030 QNH2982INS 
     BECMG 2123/2124 07006KT 9000 -SHRA SCT030 SCT100 QNH2983INS 
     BECMG 2203/2204 03006KT 9999 NSW SCT100 QNH2989INS TX13/2122Z TN03/2113Z
       
TAF KSKF 210200Z 2102/2208 15009KT 9999 SCT050 QNH2982INS 
     BECMG 2107/2108 15009KT 9999 BKN015 QNH2986INS 
     BECMG 2114/2115 16010G15KT 9999 SCT030 QNH2983INS 
     BECMG 2123/2124 13009KT 9999 SCT020 QNH2980INS TX34/2120Z TN25/2110Z
       
KSLC 210246Z 2103/2206 33012G20KT P6SM VCSH SCT080 BKN100 
     FM210600 33008KT P6SM SCT080 BKN100 
     FM211100 35007KT P6SM BKN060 OVC100 
     FM211900 33010G18KT P6SM VCSH SCT040 BKN060 
     FM220000 34010KT 6SM -RA SCT025 BKN050
       
KSLE 202320Z 2100/2124 21004KT P6SM SCT035 
     FM211400 20004KT P6SM OVC025 
     FM211700 VRB04KT P6SM SCT035
       
TAF KSLI 202105Z 2021/2203 18009KT 9999 SCT030 QNH2981INS 
     BECMG 2105/2106 VRB03KT 9999 BKN020 OVC030 QNH2982INS 
     BECMG 2111/2112 VRB05KT 9999 SCT015 OVC030 QNH2982INS 
     BECMG 2117/2118 21009KT 9999 SCT020 BKN030 QNH2983INS 
     BECMG 2120/2121 21009KT 9999 SCT030 QNH2979INS TX26/2022Z TN15/2114Z
       
KSLK 210253Z 2103/2124 00000KT 2SM BR SCT250 
     FM210500 00000KT 1/4SM FG VV001 
     FM211300 VRB03KT 4SM BR BKN002 
     FM211400 04004KT P6SM FEW200
       
KSLN 202333Z 2100/2124 05005KT P6SM FEW050 
     FM210500 08005KT P6SM FEW050 
     FM210800 13005KT P6SM FEW050 
     FM211400 16014G20KT P6SM SKC 
     FM211700 17020G28KT P6SM FEW060
       
KSME 202324Z 2100/2124 VRB03KT P6SM FEW040 
     FM210600 00000KT 2SM BR SKC 
     FM210800 00000KT 1/2SM FG SCT003 
     FM211300 VRB03KT P6SM SKC 
     FM211700 VRB03KT P6SM SCT035
       
KSMF 202321Z 2100/2124 22012KT P6SM FEW060 OVC150 
     FM211100 33008KT P6SM BKN250
       
KSMN 202326Z 2100/2124 20014G24KT P6SM -SHRA SCT035 BKN060 
     FM210300 36006KT P6SM VCSH BKN050 BKN080 
     FM210900 VRB03KT 5SM BR SCT015 BKN070 
     FM211600 VRB04KT P6SM SCT020 BKN070 AMD LTD TO CLD VIS AND WIND
       
KSMO 202359Z 2100/2124 23009KT P6SM BKN035 
     FM210300 24004KT P6SM SCT035 
     FM210700 VRB03KT P6SM VCSH BKN012 BKN025 
     FM211700 23008KT P6SM VCSH BKN025 BKN040 
     FM211900 24012G18KT P6SM SCT025 BKN040
       
KSMX 210306Z 2103/2124 30010KT 5SM BR OVC005 
     FM210900 31007KT P6SM SCT006 OVC012 
     FM211700 30014G22KT P6SM SCT012 SCT025 
     FM212000 30023G33KT 6SM BLDU FEW012 SCT025
       
KSNA 202320Z 2100/2124 20009KT P6SM SCT025 BKN035 
     FM210200 20005KT P6SM SCT025 BKN035 
     FM210600 15006KT P6SM OVC025 
     FM210900 15008KT P6SM VCSH OVC022 
     FM211800 22010KT P6SM SCT025 BKN035
       
KSNS 202339Z 2100/2124 28011KT P6SM FEW020 
     FM210600 26010KT P6SM SCT015 
     FM211800 27014G20KT P6SM SKC
       
KSNY 202320Z 2100/2124 16015G25KT P6SM SKC 
     FM210130 16012KT P6SM SKC 
     FM211800 18012G22KT P6SM SKC
       
KSPS 210105Z 2101/2124 14013KT P6SM SCT080 BKN250 
     TEMPO 2101/2103 VRB30KT 3SM TSRA BKN050CB 
     FM211500 17014G20KT P6SM SKC
       
KSRQ 202324Z 2100/2124 08005KT P6SM VCSH SCT050 
     FM210200 VRB04KT P6SM FEW040 SCT200 
     FM211700 04008KT P6SM SCT050 SCT250
       
TAF KSSC 202300Z 2023/2205 27006KT 9999 FEW050 QNH2994INS 
     BECMG 2115/2116 02009KT 9999 SCT050 QNH2996INS 
     TEMPO 2121/2124 04010G15KT 6000 -TSRA BKN035CB BKN100 
     BECMG 2200/2201 06006KT 9999 FEW020 SCT040 SCT120 QNH2997INS TX32/2120Z TN20/2111Z
       
KSSF 202341Z 2100/2124 13011KT P6SM SCT040 
     FM210700 15008KT P6SM BKN012 
     FM211600 17009KT P6SM SCT040 
     FM212200 13011KT P6SM SCT040
       
KSTC 202337Z 2100/2124 28004KT P6SM SKC 
     FM210100 00000KT P6SM SKC 
     FM211500 13009KT P6SM SKC 
     FM211800 14011G17KT P6SM FEW250 
     FM212300 13009KT P6SM FEW250
       
KSTL 210254Z 2103/2206 17009KT P6SM SKC
       
KSTS 202339Z 2100/2124 25016G21KT P6SM SCT120 
     FM210400 31009KT P6SM SCT120 
     FM211000 VRB03KT P6SM SCT120 
     FM211700 33007KT P6SM SKC 
     FM212200 27013G17KT P6SM SKC
       
KSUA 202330Z 2100/2124 07009KT P6SM FEW025 SCT100 
     FM210600 VRB05KT P6SM VCSH SCT025 SCT250 
     FM211500 05010KT P6SM VCSH SCT025 SCT250
       
KSUN 202339Z 2100/2206 VRB06KT P6SM SHRA SCT015 BKN030 OVC040 
     FM210300 32009KT P6SM -SHRA SCT015 BKN020 OVC030 
     FM211300 32007KT P6SM -SHRA SCT030 OVC070 
     FM211800 15008KT P6SM VCSH SCT040 BKN090 
     FM220300 31008KT P6SM VCSH SCT040 BKN100
       
KSUS 202328Z 2100/2124 VRB03KT P6SM SKC 
     FM211800 17008KT P6SM FEW060
       
TAF KSUU 210301Z 2103/2209 26015G25KT 9999 BKN110 QNH2977INS 
     BECMG 2108/2109 26012G18KT 9999 FEW060 QNH2982INS 
     TEMPO 2109/2112 27015G25KT 
     BECMG 2111/2112 28009KT 9999 SCT060 QNH2983INS 
     BECMG 2123/2124 24012KT 9999 FEW060 SCT100 QNH2984INS TX23/2123Z TN10/2113Z
       
KSUX 202320Z 2100/2124 05004KT P6SM SKC 
     FM211300 11007KT P6SM BKN150 
     FM211600 14011KT P6SM BKN030 
     FM212000 16014KT P6SM SCT040 SCT150
       
KSWF 202343Z 2100/2206 02008KT P6SM SCT050 BKN250 
     FM211600 36011KT P6SM FEW050 BKN250 AMD NOT SKED
       
KSYR 202329Z 2100/2124 31005KT P6SM SKC 
     FM211500 32007KT P6SM FEW045
       
TAF KSZL 210300Z 2103/2209 19006KT 9999 SCT040 510102 QNH2983INS 
     BECMG 2114/2115 18010G15KT 9999 SCT050 QNH2985INS 
     BECMG 2123/2124 16009KT 9999 SCT040 QNH2988INS TX32/2121Z TN22/2112Z